sensor_id;sensor_type;location;lat;lon;timestamp;pressure;altitude;pressure_sealevel;temperature;humidity
70730;BME280;58315;53.336;55.932;2023-04-26T00:00:19;100071.94;;;18.29;32.34
70730;BME280;58315;53.336;55.932;2023-04-26T00:02:46;100069.03;;;18.39;32.41
70730;BME280;58315;53.336;55.932;2023-04-26T00:05:14;100076.34;;;18.45;32.24
70730;BME280;58315;53.336;55.932;2023-04-26T00:07:41;100071.59;;;18.55;32.06
70730;BME280;58315;53.336;55.932;2023-04-26T00:10:09;100066.38;;;18.62;31.91
70730;BME280;58315;53.336;55.932;2023-04-26T00:12:36;100077.03;;;18.70;31.98
70730;BME280;58315;53.336;55.932;2023-04-26T00:15:03;100073.19;;;18.72;31.88
70730;BME280;58315;53.336;55.932;2023-04-26T00:17:30;100066.97;;;18.72;31.86
70730;BME280;58315;53.336;55.932;2023-04-26T00:19:56;100070.13;;;18.75;31.81
70730;BME280;58315;53.336;55.932;2023-04-26T00:22:23;100067.34;;;18.69;32.07
70730;BME280;58315;53.336;55.932;2023-04-26T00:24:50;100066.63;;;18.75;31.65
70730;BME280;58315;53.336;55.932;2023-04-26T00:27:17;100067.66;;;18.74;31.98
70730;BME280;58315;53.336;55.932;2023-04-26T00:29:43;100073.47;;;18.77;31.83
70730;BME280;58315;53.336;55.932;2023-04-26T00:32:09;100065.72;;;18.83;31.84
70730;BME280;58315;53.336;55.932;2023-04-26T00:34:36;100070.00;;;18.92;31.77
70730;BME280;58315;53.336;55.932;2023-04-26T00:37:03;100062.81;;;18.92;31.63
70730;BME280;58315;53.336;55.932;2023-04-26T00:39:30;100066.63;;;18.98;31.71
70730;BME280;58315;53.336;55.932;2023-04-26T00:41:57;100065.28;;;18.94;31.72
70730;BME280;58315;53.336;55.932;2023-04-26T00:44:23;100071.13;;;18.97;31.56
70730;BME280;58315;53.336;55.932;2023-04-26T00:46:51;100081.13;;;19.03;31.43
70730;BME280;58315;53.336;55.932;2023-04-26T00:49:20;100075.50;;;19.13;31.48
70730;BME280;58315;53.336;55.932;2023-04-26T00:51:50;100074.97;;;19.18;31.16
70730;BME280;58315;53.336;55.932;2023-04-26T00:54:18;100073.78;;;19.20;31.49
70730;BME280;58315;53.336;55.932;2023-04-26T00:56:45;100069.41;;;19.19;31.49
70730;BME280;58315;53.336;55.932;2023-04-26T00:59:11;100063.06;;;19.20;31.34
70730;BME280;58315;53.336;55.932;2023-04-26T01:01:37;100068.41;;;19.20;31.56
70730;BME280;58315;53.336;55.932;2023-04-26T01:04:05;100070.72;;;19.23;31.52
70730;BME280;58315;53.336;55.932;2023-04-26T01:06:34;100074.63;;;19.36;31.33
70730;BME280;58315;53.336;55.932;2023-04-26T01:09:04;100069.63;;;19.33;31.33
70730;BME280;58315;53.336;55.932;2023-04-26T01:11:36;100073.13;;;19.33;31.49
70730;BME280;58315;53.336;55.932;2023-04-26T01:14:04;100071.28;;;19.34;31.32
70730;BME280;58315;53.336;55.932;2023-04-26T01:16:31;100072.09;;;19.34;31.19
70730;BME280;58315;53.336;55.932;2023-04-26T01:19:06;100067.78;;;19.48;31.18
70730;BME280;58315;53.336;55.932;2023-04-26T01:21:32;100056.88;;;19.35;31.05
70730;BME280;58315;53.336;55.932;2023-04-26T01:23:59;100053.34;;;19.19;30.72
70730;BME280;58315;53.336;55.932;2023-04-26T01:26:25;100050.66;;;19.34;30.59
70730;BME280;58315;53.336;55.932;2023-04-26T01:28:53;100054.47;;;19.40;30.40
70730;BME280;58315;53.336;55.932;2023-04-26T01:31:19;100049.78;;;19.42;30.13
70730;BME280;58315;53.336;55.932;2023-04-26T01:33:45;100052.06;;;19.45;30.07
70730;BME280;58315;53.336;55.932;2023-04-26T01:36:12;100046.22;;;19.56;30.12
70730;BME280;58315;53.336;55.932;2023-04-26T01:38:37;100048.50;;;19.67;29.84
70730;BME280;58315;53.336;55.932;2023-04-26T01:41:04;100042.28;;;19.67;29.59
70730;BME280;58315;53.336;55.932;2023-04-26T01:43:31;100047.75;;;19.73;29.65
70730;BME280;58315;53.336;55.932;2023-04-26T01:45:57;100040.59;;;19.81;29.86
70730;BME280;58315;53.336;55.932;2023-04-26T01:48:30;100041.28;;;19.83;29.34
70730;BME280;58315;53.336;55.932;2023-04-26T01:51:00;100056.13;;;19.85;29.48
70730;BME280;58315;53.336;55.932;2023-04-26T01:53:26;100047.25;;;19.85;29.08
70730;BME280;58315;53.336;55.932;2023-04-26T01:55:52;100051.78;;;19.84;29.45
70730;BME280;58315;53.336;55.932;2023-04-26T01:58:20;100054.19;;;19.94;29.05
70730;BME280;58315;53.336;55.932;2023-04-26T02:00:48;100049.53;;;20.03;28.85
70730;BME280;58315;53.336;55.932;2023-04-26T02:03:17;100054.72;;;20.04;29.06
70730;BME280;58315;53.336;55.932;2023-04-26T02:05:43;100045.38;;;20.15;28.83
70730;BME280;58315;53.336;55.932;2023-04-26T02:08:09;100051.19;;;20.18;28.72
70730;BME280;58315;53.336;55.932;2023-04-26T02:10:35;100043.19;;;20.25;28.69
70730;BME280;58315;53.336;55.932;2023-04-26T02:13:02;100040.69;;;20.23;28.67
70730;BME280;58315;53.336;55.932;2023-04-26T02:15:28;100029.16;;;20.23;28.54
70730;BME280;58315;53.336;55.932;2023-04-26T02:17:55;100031.25;;;20.28;28.15
70730;BME280;58315;53.336;55.932;2023-04-26T02:20:21;100034.00;;;20.34;28.36
70730;BME280;58315;53.336;55.932;2023-04-26T02:22:47;100028.19;;;20.31;28.36
70730;BME280;58315;53.336;55.932;2023-04-26T02:25:14;100026.63;;;20.21;28.25
70730;BME280;58315;53.336;55.932;2023-04-26T02:27:41;100020.28;;;20.22;28.12
70730;BME280;58315;53.336;55.932;2023-04-26T02:30:07;100026.03;;;20.41;28.40
70730;BME280;58315;53.336;55.932;2023-04-26T02:32:34;100015.84;;;20.36;27.95
70730;BME280;58315;53.336;55.932;2023-04-26T02:35:00;100019.63;;;20.42;27.63
70730;BME280;58315;53.336;55.932;2023-04-26T02:37:26;100010.81;;;20.48;27.80
70730;BME280;58315;53.336;55.932;2023-04-26T02:39:52;100014.44;;;20.55;27.73
70730;BME280;58315;53.336;55.932;2023-04-26T02:42:18;100006.16;;;20.57;27.57
70730;BME280;58315;53.336;55.932;2023-04-26T02:44:45;99999.22;;;20.47;27.21
70730;BME280;58315;53.336;55.932;2023-04-26T02:47:12;100009.63;;;20.51;27.47
70730;BME280;58315;53.336;55.932;2023-04-26T02:49:38;99991.72;;;20.58;27.08
70730;BME280;58315;53.336;55.932;2023-04-26T02:52:04;99995.09;;;20.66;27.18
70730;BME280;58315;53.336;55.932;2023-04-26T02:54:31;99992.44;;;20.73;26.70
70730;BME280;58315;53.336;55.932;2023-04-26T02:56:57;99987.53;;;20.77;27.00
70730;BME280;58315;53.336;55.932;2023-04-26T02:59:23;99974.38;;;20.82;26.80
70730;BME280;58315;53.336;55.932;2023-04-26T03:01:49;99994.75;;;20.76;26.87
70730;BME280;58315;53.336;55.932;2023-04-26T03:04:16;99981.53;;;20.75;26.74
70730;BME280;58315;53.336;55.932;2023-04-26T03:06:43;99972.13;;;20.85;26.82
70730;BME280;58315;53.336;55.932;2023-04-26T03:09:09;99976.88;;;20.90;26.53
70730;BME280;58315;53.336;55.932;2023-04-26T03:11:36;99979.19;;;20.93;26.33
70730;BME280;58315;53.336;55.932;2023-04-26T03:14:02;99985.38;;;20.93;26.52
70730;BME280;58315;53.336;55.932;2023-04-26T03:16:29;99972.00;;;21.00;26.38
70730;BME280;58315;53.336;55.932;2023-04-26T03:18:56;99969.56;;;21.05;26.51
70730;BME280;58315;53.336;55.932;2023-04-26T03:21:23;99973.75;;;21.14;26.30
70730;BME280;58315;53.336;55.932;2023-04-26T03:23:49;99966.75;;;21.20;26.44
70730;BME280;58315;53.336;55.932;2023-04-26T03:26:15;99984.81;;;21.33;26.28
70730;BME280;58315;53.336;55.932;2023-04-26T03:28:42;99964.22;;;21.40;26.17
70730;BME280;58315;53.336;55.932;2023-04-26T03:31:08;99959.09;;;21.52;26.08
70730;BME280;58315;53.336;55.932;2023-04-26T03:33:34;99964.25;;;21.53;26.08
70730;BME280;58315;53.336;55.932;2023-04-26T03:36:00;99947.97;;;21.61;25.83
70730;BME280;58315;53.336;55.932;2023-04-26T03:38:27;99959.78;;;21.74;25.66
70730;BME280;58315;53.336;55.932;2023-04-26T03:40:53;99949.47;;;21.84;25.28
70730;BME280;58315;53.336;55.932;2023-04-26T03:43:19;99949.72;;;22.02;24.60
70730;BME280;58315;53.336;55.932;2023-04-26T03:45:46;99945.63;;;22.26;24.55
70730;BME280;58315;53.336;55.932;2023-04-26T03:48:14;99941.72;;;22.42;24.83
70730;BME280;58315;53.336;55.932;2023-04-26T03:50:41;99947.09;;;22.55;24.81
70730;BME280;58315;53.336;55.932;2023-04-26T03:53:10;99939.03;;;22.62;24.68
70730;BME280;58315;53.336;55.932;2023-04-26T03:55:37;99931.56;;;22.57;24.51
70730;BME280;58315;53.336;55.932;2023-04-26T03:58:04;99933.25;;;22.45;24.62
70730;BME280;58315;53.336;55.932;2023-04-26T04:00:36;99922.25;;;22.40;24.46
70730;BME280;58315;53.336;55.932;2023-04-26T04:03:02;99922.44;;;22.19;24.57
70730;BME280;58315;53.336;55.932;2023-04-26T04:05:31;99929.03;;;22.09;24.88
70730;BME280;58315;53.336;55.932;2023-04-26T04:07:57;99910.59;;;22.00;24.79
70730;BME280;58315;53.336;55.932;2023-04-26T04:10:24;99897.38;;;21.98;24.56
70730;BME280;58315;53.336;55.932;2023-04-26T04:12:51;99901.91;;;21.98;24.89
70730;BME280;58315;53.336;55.932;2023-04-26T04:15:19;99900.47;;;21.95;24.90
70730;BME280;58315;53.336;55.932;2023-04-26T04:17:46;99899.22;;;21.91;24.51
70730;BME280;58315;53.336;55.932;2023-04-26T04:20:12;99886.38;;;21.80;24.76
70730;BME280;58315;53.336;55.932;2023-04-26T04:22:39;99883.25;;;21.83;24.69
70730;BME280;58315;53.336;55.932;2023-04-26T04:25:06;99885.09;;;21.82;24.76
70730;BME280;58315;53.336;55.932;2023-04-26T04:27:34;99883.88;;;21.85;24.59
70730;BME280;58315;53.336;55.932;2023-04-26T04:30:05;99874.38;;;21.89;24.90
70730;BME280;58315;53.336;55.932;2023-04-26T04:32:34;99879.97;;;21.87;24.97
70730;BME280;58315;53.336;55.932;2023-04-26T04:35:01;99867.75;;;21.85;24.88
70730;BME280;58315;53.336;55.932;2023-04-26T04:37:29;99876.84;;;21.97;24.47
70730;BME280;58315;53.336;55.932;2023-04-26T04:39:58;99849.97;;;21.90;24.54
70730;BME280;58315;53.336;55.932;2023-04-26T04:42:24;99866.72;;;21.99;24.57
70730;BME280;58315;53.336;55.932;2023-04-26T04:44:54;99862.81;;;22.22;24.38
70730;BME280;58315;53.336;55.932;2023-04-26T04:47:21;99867.56;;;22.06;24.08
70730;BME280;58315;53.336;55.932;2023-04-26T04:49:47;99867.16;;;22.03;24.19
70730;BME280;58315;53.336;55.932;2023-04-26T04:52:13;99849.78;;;22.05;24.05
70730;BME280;58315;53.336;55.932;2023-04-26T04:54:39;99861.19;;;22.14;23.92
70730;BME280;58315;53.336;55.932;2023-04-26T04:57:07;99857.84;;;22.19;23.99
70730;BME280;58315;53.336;55.932;2023-04-26T04:59:33;99850.19;;;22.22;23.99
70730;BME280;58315;53.336;55.932;2023-04-26T05:01:59;99871.91;;;22.34;23.87
70730;BME280;58315;53.336;55.932;2023-04-26T05:04:26;99853.66;;;22.56;23.96
70730;BME280;58315;53.336;55.932;2023-04-26T05:06:52;99864.00;;;22.79;23.49
70730;BME280;58315;53.336;55.932;2023-04-26T05:09:19;99850.72;;;22.97;23.51
70730;BME280;58315;53.336;55.932;2023-04-26T05:11:46;99851.28;;;23.13;23.25
70730;BME280;58315;53.336;55.932;2023-04-26T05:14:12;99852.22;;;23.31;22.94
70730;BME280;58315;53.336;55.932;2023-04-26T05:16:38;99854.09;;;23.69;22.74
70730;BME280;58315;53.336;55.932;2023-04-26T05:19:04;99840.56;;;24.08;22.55
70730;BME280;58315;53.336;55.932;2023-04-26T05:21:31;99851.69;;;24.18;22.28
70730;BME280;58315;53.336;55.932;2023-04-26T05:23:57;99841.53;;;24.13;22.24
70730;BME280;58315;53.336;55.932;2023-04-26T05:26:23;99831.34;;;24.15;22.41
70730;BME280;58315;53.336;55.932;2023-04-26T05:29:08;99844.03;;;24.15;22.18
70730;BME280;58315;53.336;55.932;2023-04-26T05:31:54;99828.53;;;24.03;22.26
70730;BME280;58315;53.336;55.932;2023-04-26T05:34:32;99837.50;;;23.97;22.53
70730;BME280;58315;53.336;55.932;2023-04-26T05:36:58;99836.03;;;24.01;22.50
70730;BME280;58315;53.336;55.932;2023-04-26T05:39:24;99818.28;;;23.87;22.38
70730;BME280;58315;53.336;55.932;2023-04-26T05:41:50;99831.91;;;23.99;22.28
70730;BME280;58315;53.336;55.932;2023-04-26T05:44:17;99827.28;;;24.06;22.38
70730;BME280;58315;53.336;55.932;2023-04-26T05:46:44;99829.06;;;24.37;21.96
70730;BME280;58315;53.336;55.932;2023-04-26T05:49:11;99824.63;;;24.68;21.66
70730;BME280;58315;53.336;55.932;2023-04-26T05:51:37;99833.34;;;24.88;21.29
70730;BME280;58315;53.336;55.932;2023-04-26T05:54:03;99821.66;;;25.13;21.15
70730;BME280;58315;53.336;55.932;2023-04-26T05:56:29;99815.53;;;25.47;21.01
70730;BME280;58315;53.336;55.932;2023-04-26T05:58:56;99801.38;;;25.64;20.33
70730;BME280;58315;53.336;55.932;2023-04-26T06:01:23;99820.44;;;25.69;21.10
70730;BME280;58315;53.336;55.932;2023-04-26T06:03:49;99813.78;;;25.83;20.99
70730;BME280;58315;53.336;55.932;2023-04-26T06:06:18;99815.47;;;26.08;20.51
70730;BME280;58315;53.336;55.932;2023-04-26T06:08:45;99818.41;;;26.30;20.39
70730;BME280;58315;53.336;55.932;2023-04-26T06:11:11;99815.81;;;26.23;20.50
70730;BME280;58315;53.336;55.932;2023-04-26T06:13:37;99807.09;;;26.44;20.11
70730;BME280;58315;53.336;55.932;2023-04-26T06:16:05;99819.59;;;26.45;20.38
70730;BME280;58315;53.336;55.932;2023-04-26T06:18:31;99811.84;;;26.26;20.06
70730;BME280;58315;53.336;55.932;2023-04-26T06:20:57;99807.00;;;26.28;20.39
70730;BME280;58315;53.336;55.932;2023-04-26T06:23:23;99806.53;;;26.31;20.52
70730;BME280;58315;53.336;55.932;2023-04-26T06:25:49;99807.34;;;26.31;20.22
70730;BME280;58315;53.336;55.932;2023-04-26T06:28:15;99799.78;;;26.21;20.54
70730;BME280;58315;53.336;55.932;2023-04-26T06:30:42;99784.25;;;26.17;20.23
70730;BME280;58315;53.336;55.932;2023-04-26T06:33:08;99786.38;;;26.27;20.50
70730;BME280;58315;53.336;55.932;2023-04-26T06:35:41;99783.19;;;26.41;20.44
70730;BME280;58315;53.336;55.932;2023-04-26T06:38:08;99784.72;;;26.37;19.91
70730;BME280;58315;53.336;55.932;2023-04-26T06:40:37;99766.47;;;26.44;20.50
70730;BME280;58315;53.336;55.932;2023-04-26T06:43:03;99769.66;;;26.41;20.44
70730;BME280;58315;53.336;55.932;2023-04-26T06:45:59;99773.78;;;26.44;20.37
70730;BME280;58315;53.336;55.932;2023-04-26T06:48:25;99757.53;;;26.44;20.56
70730;BME280;58315;53.336;55.932;2023-04-26T06:50:52;99752.91;;;26.68;19.94
70730;BME280;58315;53.336;55.932;2023-04-26T06:53:18;99759.16;;;26.97;20.04
70730;BME280;58315;53.336;55.932;2023-04-26T06:55:44;99756.06;;;27.17;19.57
70730;BME280;58315;53.336;55.932;2023-04-26T06:58:10;99745.72;;;27.31;19.09
70730;BME280;58315;53.336;55.932;2023-04-26T07:00:37;99745.66;;;27.43;19.47
70730;BME280;58315;53.336;55.932;2023-04-26T07:03:03;99759.06;;;27.32;19.06
70730;BME280;58315;53.336;55.932;2023-04-26T07:05:29;99759.72;;;27.39;19.46
70730;BME280;58315;53.336;55.932;2023-04-26T07:07:55;99777.63;;;27.40;19.10
70730;BME280;58315;53.336;55.932;2023-04-26T07:10:21;99741.28;;;27.41;19.13
70730;BME280;58315;53.336;55.932;2023-04-26T07:12:47;99756.63;;;27.64;18.99
70730;BME280;58315;53.336;55.932;2023-04-26T07:15:13;99731.59;;;27.62;18.87
70730;BME280;58315;53.336;55.932;2023-04-26T07:17:39;99749.31;;;27.82;18.61
70730;BME280;58315;53.336;55.932;2023-04-26T07:20:05;99737.38;;;27.66;18.72
70730;BME280;58315;53.336;55.932;2023-04-26T07:22:31;99725.38;;;27.62;18.69
70730;BME280;58315;53.336;55.932;2023-04-26T07:24:58;99740.91;;;27.67;18.52
70730;BME280;58315;53.336;55.932;2023-04-26T07:27:24;99718.63;;;27.48;18.85
70730;BME280;58315;53.336;55.932;2023-04-26T07:29:53;99716.94;;;27.30;19.13
70730;BME280;58315;53.336;55.932;2023-04-26T07:32:20;99708.34;;;27.50;19.09
70730;BME280;58315;53.336;55.932;2023-04-26T07:34:46;99727.38;;;27.21;18.96
70730;BME280;58315;53.336;55.932;2023-04-26T07:37:12;99728.19;;;27.22;18.93
70730;BME280;58315;53.336;55.932;2023-04-26T07:39:38;99715.78;;;27.26;18.77
70730;BME280;58315;53.336;55.932;2023-04-26T07:42:04;99722.41;;;27.47;19.02
70730;BME280;58315;53.336;55.932;2023-04-26T07:44:30;99706.19;;;27.52;18.86
70730;BME280;58315;53.336;55.932;2023-04-26T07:46:56;99711.19;;;27.26;19.26
70730;BME280;58315;53.336;55.932;2023-04-26T07:49:22;99720.22;;;27.15;18.88
70730;BME280;58315;53.336;55.932;2023-04-26T07:51:48;99694.41;;;27.12;19.12
70730;BME280;58315;53.336;55.932;2023-04-26T07:54:16;99699.00;;;27.12;19.67
70730;BME280;58315;53.336;55.932;2023-04-26T07:56:43;99714.69;;;27.10;19.31
70730;BME280;58315;53.336;55.932;2023-04-26T07:59:09;99702.28;;;26.85;19.30
70730;BME280;58315;53.336;55.932;2023-04-26T08:01:36;99710.47;;;26.74;19.74
70730;BME280;58315;53.336;55.932;2023-04-26T08:04:02;99712.97;;;26.63;19.40
70730;BME280;58315;53.336;55.932;2023-04-26T08:06:29;99713.25;;;26.38;19.51
70730;BME280;58315;53.336;55.932;2023-04-26T08:08:56;99712.44;;;26.26;19.75
70730;BME280;58315;53.336;55.932;2023-04-26T08:11:22;99708.81;;;26.09;19.87
70730;BME280;58315;53.336;55.932;2023-04-26T08:13:48;99721.50;;;26.20;19.88
70730;BME280;58315;53.336;55.932;2023-04-26T08:16:14;99719.16;;;26.12;20.03
70730;BME280;58315;53.336;55.932;2023-04-26T08:18:40;99709.53;;;26.04;20.48
70730;BME280;58315;53.336;55.932;2023-04-26T08:21:06;99725.19;;;25.90;20.36
70730;BME280;58315;53.336;55.932;2023-04-26T08:23:35;99705.97;;;25.92;20.29
70730;BME280;58315;53.336;55.932;2023-04-26T08:26:02;99715.75;;;25.81;20.77
70730;BME280;58315;53.336;55.932;2023-04-26T08:28:28;99717.97;;;25.72;20.66
70730;BME280;58315;53.336;55.932;2023-04-26T08:30:54;99720.66;;;25.72;20.61
70730;BME280;58315;53.336;55.932;2023-04-26T08:33:21;99716.44;;;25.77;20.60
70730;BME280;58315;53.336;55.932;2023-04-26T08:35:47;99709.03;;;25.60;20.74
70730;BME280;58315;53.336;55.932;2023-04-26T08:38:13;99727.59;;;25.45;20.73
70730;BME280;58315;53.336;55.932;2023-04-26T08:40:40;99703.91;;;25.40;21.12
70730;BME280;58315;53.336;55.932;2023-04-26T08:43:09;99712.75;;;25.47;20.72
70730;BME280;58315;53.336;55.932;2023-04-26T08:45:38;99719.41;;;25.33;21.39
70730;BME280;58315;53.336;55.932;2023-04-26T08:48:09;99709.31;;;25.40;21.39
70730;BME280;58315;53.336;55.932;2023-04-26T08:50:39;99703.44;;;25.43;21.30
70730;BME280;58315;53.336;55.932;2023-04-26T08:53:07;99711.75;;;25.18;21.30
70730;BME280;58315;53.336;55.932;2023-04-26T08:55:34;99724.25;;;25.31;21.62
70730;BME280;58315;53.336;55.932;2023-04-26T08:58:01;99729.50;;;25.26;21.95
70730;BME280;58315;53.336;55.932;2023-04-26T09:00:29;99724.72;;;25.28;21.69
70730;BME280;58315;53.336;55.932;2023-04-26T09:02:55;99726.22;;;25.24;22.07
70730;BME280;58315;53.336;55.932;2023-04-26T09:05:21;99733.53;;;25.23;21.82
70730;BME280;58315;53.336;55.932;2023-04-26T09:07:59;99737.16;;;25.29;21.71
70730;BME280;58315;53.336;55.932;2023-04-26T09:10:25;99742.19;;;25.14;21.65
70730;BME280;58315;53.336;55.932;2023-04-26T09:12:52;99743.25;;;25.13;21.94
70730;BME280;58315;53.336;55.932;2023-04-26T09:15:20;99747.88;;;25.24;22.21
70730;BME280;58315;53.336;55.932;2023-04-26T09:17:47;99747.41;;;25.27;22.14
70730;BME280;58315;53.336;55.932;2023-04-26T09:20:26;99755.31;;;25.40;21.85
70730;BME280;58315;53.336;55.932;2023-04-26T09:23:06;99744.66;;;25.57;21.70
70730;BME280;58315;53.336;55.932;2023-04-26T09:25:34;99731.31;;;25.44;21.71
70730;BME280;58315;53.336;55.932;2023-04-26T09:28:02;99733.84;;;25.69;21.95
70730;BME280;58315;53.336;55.932;2023-04-26T09:30:29;99717.88;;;25.79;21.77
70730;BME280;58315;53.336;55.932;2023-04-26T09:32:59;99722.22;;;25.92;21.51
70730;BME280;58315;53.336;55.932;2023-04-26T09:35:33;99711.94;;;25.70;21.36
70730;BME280;58315;53.336;55.932;2023-04-26T09:38:03;99733.00;;;25.57;21.64
70730;BME280;58315;53.336;55.932;2023-04-26T09:40:32;99723.91;;;25.39;21.81
70730;BME280;58315;53.336;55.932;2023-04-26T09:43:19;99745.78;;;25.38;22.03
70730;BME280;58315;53.336;55.932;2023-04-26T09:45:47;99734.56;;;25.22;22.31
70730;BME280;58315;53.336;55.932;2023-04-26T09:48:32;99725.66;;;25.34;21.87
70730;BME280;58315;53.336;55.932;2023-04-26T09:58:35;99738.09;;;25.05;22.61
70730;BME280;58315;53.336;55.932;2023-04-26T10:01:02;99736.09;;;25.00;22.68
70730;BME280;58315;53.336;55.932;2023-04-26T10:03:30;99746.44;;;25.03;22.84
70730;BME280;58315;53.336;55.932;2023-04-26T10:05:58;99745.25;;;24.99;22.78
70730;BME280;58315;53.336;55.932;2023-04-26T10:08:23;99744.91;;;24.95;22.79
70730;BME280;58315;53.336;55.932;2023-04-26T10:10:50;99753.00;;;24.95;22.88
70730;BME280;58315;53.336;55.932;2023-04-26T10:13:17;99747.75;;;24.82;22.87
70730;BME280;58315;53.336;55.932;2023-04-26T10:15:45;99744.91;;;24.95;22.86
70730;BME280;58315;53.336;55.932;2023-04-26T10:18:12;99762.59;;;25.10;22.63
70730;BME280;58315;53.336;55.932;2023-04-26T10:20:43;99758.34;;;25.32;22.81
70730;BME280;58315;53.336;55.932;2023-04-26T10:23:17;99745.00;;;25.49;22.61
70730;BME280;58315;53.336;55.932;2023-04-26T10:25:46;99733.94;;;25.50;22.50
70730;BME280;58315;53.336;55.932;2023-04-26T10:28:12;99733.47;;;25.54;22.57
70730;BME280;58315;53.336;55.932;2023-04-26T10:33:22;99759.41;;;25.31;23.17
70730;BME280;58315;53.336;55.932;2023-04-26T10:36:12;99762.47;;;25.35;22.99
70730;BME280;58315;53.336;55.932;2023-04-26T10:44:49;99759.28;;;25.08;23.54
70730;BME280;58315;53.336;55.932;2023-04-26T10:50:04;99745.97;;;25.24;23.71
70730;BME280;58315;53.336;55.932;2023-04-26T10:52:31;99749.41;;;25.01;23.55
70730;BME280;58315;53.336;55.932;2023-04-26T10:54:58;99748.28;;;24.91;23.83
70730;BME280;58315;53.336;55.932;2023-04-26T10:57:46;99742.81;;;24.97;23.83
70730;BME280;58315;53.336;55.932;2023-04-26T11:00:17;99734.91;;;24.96;23.89
70730;BME280;58315;53.336;55.932;2023-04-26T11:02:51;99736.44;;;24.73;24.16
70730;BME280;58315;53.336;55.932;2023-04-26T11:08:15;99729.16;;;24.74;26.40
70730;BME280;58315;53.336;55.932;2023-04-26T11:10:44;99736.13;;;24.82;27.25
70730;BME280;58315;53.336;55.932;2023-04-26T11:13:11;99734.28;;;24.64;27.70
70730;BME280;58315;53.336;55.932;2023-04-26T11:15:37;99737.91;;;24.39;27.83
70730;BME280;58315;53.336;55.932;2023-04-26T11:18:05;99736.50;;;24.30;28.17
70730;BME280;58315;53.336;55.932;2023-04-26T11:20:35;99716.34;;;24.33;28.41
70730;BME280;58315;53.336;55.932;2023-04-26T11:23:01;99721.00;;;24.25;28.77
70730;BME280;58315;53.336;55.932;2023-04-26T11:25:28;99723.22;;;24.10;29.14
70730;BME280;58315;53.336;55.932;2023-04-26T11:28:01;99713.84;;;24.13;28.88
70730;BME280;58315;53.336;55.932;2023-04-26T11:30:29;99702.19;;;23.94;29.02
70730;BME280;58315;53.336;55.932;2023-04-26T11:33:00;99691.97;;;24.02;28.96
70730;BME280;58315;53.336;55.932;2023-04-26T11:35:28;99675.66;;;23.91;28.57
70730;BME280;58315;53.336;55.932;2023-04-26T11:37:59;99674.84;;;24.09;28.58
70730;BME280;58315;53.336;55.932;2023-04-26T11:40:32;99665.13;;;24.44;28.42
70730;BME280;58315;53.336;55.932;2023-04-26T11:43:04;99670.25;;;24.64;28.14
70730;BME280;58315;53.336;55.932;2023-04-26T11:45:32;99669.44;;;24.64;27.31
70730;BME280;58315;53.336;55.932;2023-04-26T11:48:02;99678.28;;;24.71;27.12
70730;BME280;58315;53.336;55.932;2023-04-26T11:50:33;99670.22;;;24.83;26.87
70730;BME280;58315;53.336;55.932;2023-04-26T11:53:02;99651.66;;;24.86;26.44
70730;BME280;58315;53.336;55.932;2023-04-26T11:55:30;99650.72;;;24.81;26.43
70730;BME280;58315;53.336;55.932;2023-04-26T11:58:00;99651.06;;;24.72;25.92
70730;BME280;58315;53.336;55.932;2023-04-26T12:00:27;99644.84;;;24.72;25.86
70730;BME280;58315;53.336;55.932;2023-04-26T12:02:54;99630.81;;;24.63;25.24
70730;BME280;58315;53.336;55.932;2023-04-26T12:05:26;99617.25;;;24.93;25.33
70730;BME280;58315;53.336;55.932;2023-04-26T12:07:54;99607.53;;;25.04;24.71
70730;BME280;58315;53.336;55.932;2023-04-26T12:10:33;99604.06;;;25.15;24.66
70730;BME280;58315;53.336;55.932;2023-04-26T12:13:00;99600.06;;;25.18;24.32
70730;BME280;58315;53.336;55.932;2023-04-26T12:15:30;99613.38;;;25.31;24.68
70730;BME280;58315;53.336;55.932;2023-04-26T12:20:39;99622.19;;;25.38;24.27
70730;BME280;58315;53.336;55.932;2023-04-26T12:23:23;99620.19;;;25.57;24.55
70730;BME280;58315;53.336;55.932;2023-04-26T12:25:55;99632.44;;;25.60;24.39
70730;BME280;58315;53.336;55.932;2023-04-26T12:28:22;99632.41;;;25.48;24.49
70730;BME280;58315;53.336;55.932;2023-04-26T12:30:49;99648.19;;;25.51;24.28
70730;BME280;58315;53.336;55.932;2023-04-26T12:33:15;99657.81;;;25.47;24.51
70730;BME280;58315;53.336;55.932;2023-04-26T12:35:48;99649.25;;;25.50;24.29
70730;BME280;58315;53.336;55.932;2023-04-26T12:38:17;99659.47;;;25.48;24.45
70730;BME280;58315;53.336;55.932;2023-04-26T12:40:44;99646.78;;;25.60;24.58
70730;BME280;58315;53.336;55.932;2023-04-26T12:43:10;99650.78;;;25.69;24.62
70730;BME280;58315;53.336;55.932;2023-04-26T12:45:36;99646.53;;;25.62;24.46
70730;BME280;58315;53.336;55.932;2023-04-26T12:48:03;99641.03;;;25.45;25.17
70730;BME280;58315;53.336;55.932;2023-04-26T12:50:29;99633.38;;;25.54;25.08
70730;BME280;58315;53.336;55.932;2023-04-26T12:52:56;99631.84;;;25.34;24.89
70730;BME280;58315;53.336;55.932;2023-04-26T12:55:22;99633.03;;;25.50;24.14
70730;BME280;58315;53.336;55.932;2023-04-26T12:57:48;99628.91;;;25.47;23.68
70730;BME280;58315;53.336;55.932;2023-04-26T13:00:15;99615.97;;;25.49;23.71
70730;BME280;58315;53.336;55.932;2023-04-26T13:02:43;99614.31;;;25.48;23.86
70730;BME280;58315;53.336;55.932;2023-04-26T13:05:09;99613.84;;;25.52;23.91
70730;BME280;58315;53.336;55.932;2023-04-26T13:07:37;99613.72;;;25.46;23.80
70730;BME280;58315;53.336;55.932;2023-04-26T13:10:05;99619.84;;;25.42;23.47
70730;BME280;58315;53.336;55.932;2023-04-26T13:12:33;99618.91;;;25.36;23.68
70730;BME280;58315;53.336;55.932;2023-04-26T13:14:59;99596.69;;;25.34;23.37